createdAt,value
2023-10-26T00:02:13.296Z,5.63
2023-10-26T00:04:43.416Z,5.60
2023-10-26T00:07:12.096Z,5.93
2023-10-26T00:09:40.167Z,4.80
2023-10-26T00:12:09.243Z,4.65
2023-10-26T00:14:37.554Z,4.78
2023-10-26T00:17:05.905Z,4.57
2023-10-26T00:19:36.553Z,3.88
2023-10-26T00:22:06.802Z,3.88
2023-10-26T00:24:36.231Z,4.03
2023-10-26T00:27:04.821Z,4.72
2023-10-26T00:29:33.160Z,4.50
2023-10-26T00:32:01.377Z,4.40
2023-10-26T00:34:29.391Z,4.63
2023-10-26T00:36:57.420Z,4.82
2023-10-26T00:39:27.150Z,4.47
2023-10-26T00:41:56.201Z,6.93
2023-10-26T00:44:25.256Z,5.70
2023-10-26T00:46:56.392Z,5.32
2023-10-26T00:49:24.858Z,5.00
2023-10-26T00:51:54.276Z,5.03
2023-10-26T00:54:24.198Z,5.07
2023-10-26T00:56:54.921Z,5.45
2023-10-26T00:59:23.504Z,5.18
2023-10-26T01:01:53.214Z,4.40
2023-10-26T01:04:21.492Z,4.28
2023-10-26T01:06:50.143Z,4.30
2023-10-26T01:09:36.695Z,3.75
2023-10-26T01:12:07.325Z,3.97
2023-10-26T01:14:36.504Z,3.40
2023-10-26T01:17:05.370Z,3.13
2023-10-26T01:19:41.391Z,3.75
2023-10-26T01:22:11.247Z,3.38
2023-10-26T01:24:39.964Z,3.35
2023-10-26T01:27:08.498Z,3.53
2023-10-26T01:29:36.622Z,3.60
2023-10-26T01:32:05.330Z,3.53
2023-10-26T01:34:33.952Z,3.05
2023-10-26T01:37:05.150Z,3.88
2023-10-26T01:39:34.948Z,3.58
2023-10-26T01:42:03.579Z,2.97
2023-10-26T01:44:32.312Z,3.47
2023-10-26T01:47:00.656Z,3.67
2023-10-26T01:49:29.197Z,3.85
2023-10-26T01:51:57.501Z,3.50
2023-10-26T01:54:25.821Z,3.95
2023-10-26T01:56:55.657Z,4.32
2023-10-26T01:59:24.053Z,4.60
2023-10-26T02:01:52.153Z,4.13
2023-10-26T02:04:20.198Z,4.22
2023-10-26T02:06:48.633Z,4.47
2023-10-26T02:09:16.914Z,4.20
2023-10-26T02:11:45.241Z,3.88
2023-10-26T02:14:14.910Z,4.43
2023-10-26T02:16:43.269Z,3.75
2023-10-26T02:19:11.390Z,3.80
2023-10-26T02:21:39.724Z,3.78
2023-10-26T02:24:08.687Z,4.10
2023-10-26T02:26:36.967Z,3.78
2023-10-26T02:29:05.318Z,3.58
2023-10-26T02:31:34.737Z,3.05
2023-10-26T02:34:02.874Z,3.22
2023-10-26T02:36:31.272Z,3.13
2023-10-26T02:38:59.449Z,2.70
2023-10-26T02:41:27.799Z,3.45
2023-10-26T02:43:56.077Z,2.90
2023-10-26T02:46:24.785Z,2.75
2023-10-26T02:48:54.461Z,2.80
2023-10-26T02:51:22.812Z,2.78
2023-10-26T02:53:51.196Z,2.58
2023-10-26T02:56:19.533Z,2.25
2023-10-26T02:58:47.869Z,2.83
2023-10-26T03:01:16.176Z,3.13
2023-10-26T03:03:44.755Z,2.85
2023-10-26T03:06:14.246Z,2.72
2023-10-26T03:08:42.659Z,2.40
2023-10-26T03:11:10.941Z,2.60
2023-10-26T03:13:39.114Z,2.42
2023-10-26T03:16:08.894Z,2.50
2023-10-26T03:18:38.486Z,2.92
2023-10-26T03:21:06.910Z,2.33
2023-10-26T03:23:36.248Z,2.53
2023-10-26T03:26:04.709Z,2.88
2023-10-26T03:28:32.870Z,2.45
2023-10-26T03:31:01.224Z,2.40
2023-10-26T03:33:29.525Z,2.13
2023-10-26T03:35:57.978Z,2.90
2023-10-26T03:38:26.261Z,2.95
2023-10-26T03:40:55.754Z,2.75
2023-10-26T03:43:23.821Z,2.67
2023-10-26T03:45:52.209Z,2.50
2023-10-26T03:48:20.390Z,2.58
2023-10-26T03:50:48.502Z,2.60
2023-10-26T03:53:16.965Z,2.97
2023-10-26T03:55:45.346Z,2.55
2023-10-26T03:58:16.619Z,2.80
2023-10-26T04:00:45.047Z,2.67
2023-10-26T04:03:13.395Z,3.85
2023-10-26T04:05:41.625Z,3.10
2023-10-26T04:08:10.965Z,2.78
2023-10-26T04:10:39.205Z,2.55
2023-10-26T04:13:07.473Z,2.22
2023-10-26T04:15:36.899Z,2.92
2023-10-26T04:18:05.740Z,2.70
2023-10-26T04:20:34.229Z,2.67
2023-10-26T04:23:05.096Z,2.60
2023-10-26T04:25:50.575Z,2.50
2023-10-26T04:28:21.700Z,2.42
2023-10-26T04:30:54.269Z,2.70
2023-10-26T04:33:22.398Z,3.05
2023-10-26T04:35:51.216Z,2.60
2023-10-26T04:38:19.635Z,2.60
2023-10-26T04:40:48.311Z,2.67
2023-10-26T04:43:16.492Z,2.40
2023-10-26T04:45:44.578Z,2.60
2023-10-26T04:48:14.459Z,2.08
2023-10-26T04:50:42.765Z,2.38
2023-10-26T04:53:11.763Z,2.20
2023-10-26T04:55:40.017Z,2.05
2023-10-26T04:58:09.189Z,2.22
2023-10-26T05:00:37.719Z,2.53
2023-10-26T05:03:05.890Z,2.45
2023-10-26T05:05:36.028Z,2.05
2023-10-26T05:08:05.098Z,1.92
2023-10-26T05:10:33.430Z,2.63
2023-10-26T05:13:01.660Z,2.20
2023-10-26T05:15:29.922Z,2.03
2023-10-26T05:17:58.048Z,2.40
2023-10-26T05:20:26.563Z,2.78
2023-10-26T05:22:56.312Z,2.53
2023-10-26T05:25:24.363Z,2.60
2023-10-26T05:27:54.477Z,2.33
2023-10-26T05:30:23.355Z,2.70
2023-10-26T05:32:51.427Z,2.65
2023-10-26T05:35:20.228Z,2.67
2023-10-26T05:37:48.249Z,3.45
2023-10-26T05:40:18.081Z,3.95
2023-10-26T05:42:46.473Z,3.45
2023-10-26T05:45:14.765Z,3.15
2023-10-26T05:47:46.711Z,3.47
2023-10-26T05:50:15.133Z,3.50
2023-10-26T05:52:43.385Z,2.55
2023-10-26T05:55:11.412Z,3.25
2023-10-26T05:57:40.869Z,3.55
2023-10-26T06:00:10.998Z,4.18
2023-10-26T06:02:39.179Z,3.90
2023-10-26T06:05:07.944Z,7.00
2023-10-26T06:07:36.384Z,5.75
2023-10-26T06:10:07.024Z,4.00
2023-10-26T06:12:35.416Z,3.80
2023-10-26T06:15:05.595Z,3.65
2023-10-26T06:17:33.771Z,3.72
2023-10-26T06:20:02.115Z,3.20
2023-10-26T06:22:30.387Z,3.50
2023-10-26T06:24:58.661Z,3.22
2023-10-26T06:27:26.761Z,2.90
2023-10-26T06:29:55.071Z,3.75
2023-10-26T06:32:24.806Z,3.45
2023-10-26T06:34:53.325Z,3.30
2023-10-26T06:37:21.691Z,3.80
2023-10-26T06:39:49.849Z,3.35
2023-10-26T06:42:17.966Z,3.67
2023-10-26T06:44:46.365Z,3.90
2023-10-26T06:47:15.395Z,3.47
2023-10-26T06:49:45.226Z,3.50
2023-10-26T06:52:12.538Z,3.65
2023-10-26T06:54:40.957Z,4.68
2023-10-26T06:57:09.036Z,3.63
2023-10-26T06:59:37.038Z,3.90
2023-10-26T07:02:10.207Z,3.97
2023-10-26T07:04:41.157Z,3.33
2023-10-26T07:07:10.627Z,3.60
2023-10-26T07:09:39.214Z,4.82
2023-10-26T07:12:08.699Z,3.80
2023-10-26T07:14:38.082Z,4.40
2023-10-26T07:17:06.485Z,3.67
2023-10-26T07:19:34.794Z,3.63
2023-10-26T07:22:03.940Z,3.63
2023-10-26T07:24:35.374Z,3.90
2023-10-26T07:27:04.405Z,3.47
2023-10-26T07:29:32.641Z,3.50
2023-10-26T07:32:01.569Z,4.05
2023-10-26T07:34:29.907Z,5.70
2023-10-26T07:36:58.588Z,5.85
2023-10-26T07:42:16.675Z,4.88
2023-10-26T07:44:46.249Z,4.05
2023-10-26T07:47:14.914Z,3.97
2023-10-26T07:49:43.598Z,3.95
2023-10-26T07:52:12.304Z,4.18
2023-10-26T07:54:40.580Z,3.70
2023-10-26T07:57:09.053Z,4.00
2023-10-26T07:59:38.537Z,3.00
2023-10-26T08:02:06.922Z,3.25
2023-10-26T08:04:35.456Z,2.90
2023-10-26T08:07:04.000Z,3.35
2023-10-26T08:09:34.041Z,3.45
2023-10-26T08:12:02.469Z,2.70
2023-10-26T08:16:04.410Z,3.15
2023-10-26T08:17:22.041Z,2.90
2023-10-26T08:19:53.198Z,2.85
2023-10-26T08:22:22.061Z,3.80
2023-10-26T08:24:50.437Z,3.35
2023-10-26T08:27:19.340Z,4.40
2023-10-26T08:29:47.678Z,5.03
2023-10-26T08:32:16.486Z,5.10
2023-10-26T08:34:47.443Z,4.15
2023-10-26T08:37:16.072Z,4.13
2023-10-26T08:39:44.665Z,3.45
2023-10-26T08:42:14.481Z,3.55
2023-10-26T08:44:44.872Z,3.53
2023-10-26T08:47:15.996Z,3.10
2023-10-26T08:49:55.955Z,3.80
2023-10-26T08:52:28.946Z,4.97
2023-10-26T08:54:57.461Z,4.82
2023-10-26T08:57:25.748Z,4.20
2023-10-26T08:59:54.107Z,3.85
2023-10-26T09:02:22.203Z,3.22
2023-10-26T09:05:05.242Z,3.75
2023-10-26T09:07:33.787Z,3.47
2023-10-26T09:10:02.133Z,3.65
2023-10-26T09:12:30.481Z,4.70
2023-10-26T09:15:02.467Z,4.22
2023-10-26T09:17:31.837Z,3.88
2023-10-26T09:20:00.431Z,3.53
2023-10-26T09:22:40.227Z,3.65
2023-10-26T09:25:09.421Z,3.47
2023-10-26T09:27:37.961Z,3.80
2023-10-26T09:30:08.005Z,4.55
2023-10-26T09:32:38.175Z,3.85
2023-10-26T09:35:07.157Z,5.65
2023-10-26T09:37:51.826Z,4.68
2023-10-26T09:40:21.298Z,4.22
2023-10-26T09:42:49.900Z,4.63
2023-10-26T09:45:20.226Z,4.20
2023-10-26T09:47:48.856Z,4.63
2023-10-26T09:50:17.355Z,4.75
2023-10-26T09:52:46.044Z,4.78
2023-10-26T09:55:16.008Z,4.18
2023-10-26T09:57:50.933Z,3.83
2023-10-26T10:00:21.043Z,3.70
2023-10-26T10:03:10.977Z,3.80
2023-10-26T10:05:39.590Z,3.90
2023-10-26T10:08:08.247Z,4.00
2023-10-26T10:10:38.359Z,4.15
2023-10-26T10:13:06.915Z,3.97
2023-10-26T10:15:42.489Z,3.60
2023-10-26T10:18:11.513Z,3.33
2023-10-26T10:20:42.606Z,3.95
2023-10-26T10:23:29.026Z,4.10
2023-10-26T10:26:23.537Z,3.95
2023-10-26T10:28:54.537Z,4.15
2023-10-26T10:31:25.117Z,3.75
2023-10-26T10:34:04.580Z,4.68
2023-10-26T10:37:10.290Z,5.15
2023-10-26T10:39:39.267Z,4.55
2023-10-26T10:42:13.147Z,5.13
2023-10-26T10:44:43.549Z,4.35
2023-10-26T10:47:12.112Z,4.82
2023-10-26T10:49:40.361Z,4.97
2023-10-26T10:52:14.874Z,5.10
2023-10-26T10:54:59.728Z,5.47
2023-10-26T10:57:34.291Z,4.72
2023-10-26T11:00:02.490Z,5.30
2023-10-26T11:02:30.812Z,4.95
2023-10-26T11:05:12.580Z,5.55
2023-10-26T11:07:44.910Z,5.32
2023-10-26T11:10:13.241Z,4.97
2023-10-26T11:12:51.404Z,5.22
2023-10-26T11:15:19.998Z,4.90
2023-10-26T11:17:49.431Z,5.35
2023-10-26T11:20:35.894Z,6.10
2023-10-26T11:23:04.263Z,5.28
2023-10-26T11:25:32.396Z,5.05
2023-10-26T11:28:01.956Z,4.70
2023-10-26T11:30:31.613Z,4.90
2023-10-26T11:33:00.129Z,4.53
2023-10-26T11:35:28.473Z,4.13
2023-10-26T11:37:57.742Z,4.10
2023-10-26T11:40:33.276Z,4.35
2023-10-26T11:43:04.565Z,4.90
2023-10-26T11:45:49.114Z,4.78
2023-10-26T11:48:28.152Z,4.03
2023-10-26T11:50:56.607Z,4.35
2023-10-26T11:53:27.388Z,3.83
2023-10-26T11:55:55.582Z,4.10
2023-10-26T11:58:25.480Z,4.00
2023-10-26T12:00:53.651Z,3.95
2023-10-26T12:03:22.547Z,4.28
2023-10-26T12:05:51.050Z,4.07
2023-10-26T12:08:19.409Z,4.10
2023-10-26T12:10:47.798Z,4.78
2023-10-26T12:13:16.189Z,4.28
2023-10-26T12:15:45.833Z,4.68
2023-10-26T12:18:14.162Z,4.20
2023-10-26T12:20:42.534Z,4.50
2023-10-26T12:23:10.856Z,4.90
2023-10-26T12:25:39.457Z,4.60
2023-10-26T12:28:19.151Z,4.40
2023-10-26T12:30:52.678Z,4.25
2023-10-26T12:33:21.914Z,4.10
2023-10-26T12:35:51.748Z,4.25
2023-10-26T12:38:20.900Z,3.80
2023-10-26T12:40:49.675Z,4.10
2023-10-26T12:43:17.964Z,4.10
2023-10-26T12:45:46.359Z,4.25
2023-10-26T12:48:16.039Z,10.57
2023-10-26T12:50:44.440Z,8.40
2023-10-26T12:53:13.569Z,9.43
2023-10-26T12:55:41.859Z,5.78
2023-10-26T12:58:10.252Z,6.05
2023-10-26T13:00:38.484Z,6.55
2023-10-26T13:03:06.892Z,5.90
2023-10-26T13:05:36.334Z,6.38
2023-10-26T13:08:05.131Z,5.60
2023-10-26T13:10:33.761Z,5.40
2023-10-26T13:13:02.157Z,4.88
2023-10-26T13:15:31.204Z,5.53
2023-10-26T13:18:07.128Z,5.32
2023-10-26T13:20:37.263Z,5.60
2023-10-26T13:23:05.306Z,5.65
2023-10-26T13:25:33.662Z,6.32
2023-10-26T13:28:02.516Z,7.10
2023-10-26T13:30:30.792Z,7.65
2023-10-26T13:32:59.259Z,6.40
2023-10-26T13:35:30.978Z,6.07
2023-10-26T13:38:00.612Z,5.93
2023-10-26T13:40:29.568Z,5.60
2023-10-26T13:42:57.817Z,5.30
2023-10-26T13:45:26.010Z,6.97
2023-10-26T13:47:54.532Z,8.32
2023-10-26T13:50:23.054Z,8.52
2023-10-26T13:52:51.333Z,8.70
2023-10-26T13:55:20.796Z,7.93
2023-10-26T13:57:49.224Z,7.47
2023-10-26T14:00:18.273Z,6.80
2023-10-26T14:02:46.599Z,6.53
2023-10-26T14:05:30.234Z,10.85
2023-10-26T14:07:59.666Z,8.68
2023-10-26T14:10:29.852Z,8.32
2023-10-26T14:12:58.310Z,8.20
2023-10-26T14:15:26.649Z,8.43
2023-10-26T14:17:56.338Z,7.80
2023-10-26T14:20:24.489Z,6.57
2023-10-26T14:22:52.477Z,6.32
2023-10-26T14:25:20.822Z,6.35
2023-10-26T14:27:51.518Z,5.90
2023-10-26T14:30:20.021Z,5.22
2023-10-26T14:32:48.381Z,6.22
2023-10-26T14:35:16.756Z,7.43
2023-10-26T14:37:50.443Z,6.25
2023-10-26T14:40:19.429Z,6.38
2023-10-26T14:42:50.377Z,6.60
2023-10-26T14:45:18.714Z,4.97
2023-10-26T14:47:47.501Z,5.70
2023-10-26T14:50:15.748Z,5.40
2023-10-26T14:52:43.930Z,5.60
2023-10-26T14:55:12.489Z,5.13
2023-10-26T14:57:40.945Z,5.68
2023-10-26T15:00:11.732Z,5.53
2023-10-26T15:02:40.382Z,5.50
2023-10-26T15:05:10.284Z,5.28
2023-10-26T15:07:38.505Z,5.68
2023-10-26T15:10:24.062Z,5.13
2023-10-26T15:12:55.258Z,5.28
2023-10-26T15:15:25.570Z,5.85
2023-10-26T15:17:54.350Z,5.70
2023-10-26T15:20:22.736Z,4.57
2023-10-26T15:22:51.101Z,4.32
2023-10-26T15:25:19.280Z,4.68
2023-10-26T15:27:47.857Z,4.63
2023-10-26T15:30:16.364Z,3.80
2023-10-26T15:32:46.153Z,3.25
2023-10-26T15:35:14.477Z,4.05
2023-10-26T15:37:42.580Z,3.85
2023-10-26T15:40:13.914Z,5.47
2023-10-26T15:42:42.469Z,4.22
2023-10-26T15:45:12.745Z,4.18
2023-10-26T15:47:41.239Z,4.80
2023-10-26T15:50:12.280Z,4.22
2023-10-26T15:52:40.722Z,4.40
2023-10-26T15:55:09.941Z,20.27
2023-10-26T15:57:38.933Z,12.02
2023-10-26T16:00:10.842Z,9.60
2023-10-26T16:02:39.890Z,7.68
2023-10-26T16:05:08.703Z,6.78
2023-10-26T16:07:38.286Z,6.65
2023-10-26T16:10:07.411Z,5.47
2023-10-26T16:12:35.619Z,5.07
2023-10-26T16:15:04.166Z,5.05
2023-10-26T16:17:33.774Z,4.93
2023-10-26T16:20:02.480Z,5.38
2023-10-26T16:22:31.481Z,6.53
2023-10-26T16:25:01.800Z,5.65
2023-10-26T16:27:30.584Z,4.78
2023-10-26T16:29:59.553Z,5.00
2023-10-26T16:32:28.840Z,4.22
2023-10-26T16:34:57.720Z,3.83
2023-10-26T16:37:26.107Z,3.90
2023-10-26T16:39:55.480Z,4.07
2023-10-26T16:42:25.514Z,3.97
2023-10-26T16:44:54.624Z,4.45
2023-10-26T16:47:23.811Z,5.72
2023-10-26T16:49:53.260Z,5.43
2023-10-26T16:52:22.457Z,5.28
2023-10-26T16:54:51.404Z,5.60
2023-10-26T16:57:21.208Z,5.18
2023-10-26T16:59:51.194Z,5.95
2023-10-26T17:02:20.122Z,4.50
2023-10-26T17:04:52.594Z,4.88
2023-10-26T17:07:22.255Z,4.75
2023-10-26T17:09:51.953Z,5.65
2023-10-26T17:12:23.453Z,5.03
2023-10-26T17:14:56.770Z,4.63
2023-10-26T17:17:26.432Z,4.75
2023-10-26T17:19:57.311Z,4.95
2023-10-26T17:22:26.270Z,4.55
2023-10-26T17:24:56.180Z,4.55
2023-10-26T17:27:27.384Z,5.28
2023-10-26T17:29:59.177Z,4.20
2023-10-26T17:32:29.176Z,4.75
2023-10-26T17:34:58.887Z,4.32
2023-10-26T17:37:28.231Z,4.80
2023-10-26T17:39:57.601Z,5.22
2023-10-26T17:42:28.306Z,5.30
2023-10-26T17:44:59.824Z,4.75
2023-10-26T17:47:29.663Z,5.07
2023-10-26T17:50:00.951Z,6.03
2023-10-26T17:52:31.622Z,6.25
2023-10-26T17:55:03.459Z,6.25
2023-10-26T17:57:32.665Z,7.07
2023-10-26T18:00:04.384Z,7.90
2023-10-26T18:02:36.194Z,8.57
2023-10-26T18:05:07.011Z,9.43
2023-10-26T18:07:38.445Z,6.85
2023-10-26T18:10:09.229Z,6.93
2023-10-26T18:12:39.330Z,7.03
2023-10-26T18:15:13.321Z,5.60
2023-10-26T18:17:42.577Z,6.53
2023-10-26T18:20:15.008Z,5.60
2023-10-26T18:22:46.780Z,6.77
2023-10-26T18:25:17.280Z,5.75
2023-10-26T18:27:46.873Z,5.75
2023-10-26T18:30:19.450Z,5.82
2023-10-26T18:32:50.139Z,5.43
2023-10-26T18:35:20.356Z,5.78
2023-10-26T18:37:50.511Z,5.82
2023-10-26T18:40:21.297Z,5.68
2023-10-26T18:42:50.747Z,5.75
2023-10-26T18:45:22.176Z,5.22
2023-10-26T18:47:53.618Z,5.25
2023-10-26T18:50:23.777Z,4.65
2023-10-26T18:52:54.108Z,4.55
2023-10-26T18:55:26.627Z,3.92
2023-10-26T18:57:57.813Z,5.05
2023-10-26T19:00:30.500Z,4.82
2023-10-26T19:03:03.179Z,4.50
2023-10-26T19:05:32.277Z,5.40
2023-10-26T19:08:02.983Z,4.30
2023-10-26T19:10:35.046Z,5.45
2023-10-26T19:13:05.494Z,5.00
2023-10-26T19:15:38.512Z,4.45
2023-10-26T19:18:08.256Z,5.22
2023-10-26T19:20:39.828Z,7.45
2023-10-26T19:23:10.456Z,7.38
2023-10-26T19:25:42.865Z,6.68
2023-10-26T19:28:13.499Z,6.40
2023-10-26T19:30:45.593Z,5.35
2023-10-26T19:33:18.532Z,5.80
2023-10-26T19:35:49.303Z,5.95
2023-10-26T19:38:19.343Z,5.60
2023-10-26T19:40:49.165Z,6.07
2023-10-26T19:43:19.309Z,5.78
2023-10-26T19:45:54.710Z,7.45
2023-10-26T19:48:24.438Z,6.20
2023-10-26T19:50:54.213Z,5.68
2023-10-26T19:53:24.731Z,5.43
2023-10-26T19:55:54.909Z,6.15
2023-10-26T19:58:25.454Z,6.63
2023-10-26T20:00:57.956Z,6.55
2023-10-26T20:03:28.223Z,5.90
2023-10-26T20:05:58.869Z,6.03
2023-10-26T20:08:28.950Z,7.05
2023-10-26T20:10:59.505Z,6.65
2023-10-26T20:13:30.926Z,6.15
2023-10-26T20:16:02.619Z,5.60
2023-10-26T20:18:40.954Z,5.30
2023-10-26T20:21:12.576Z,6.03
2023-10-26T20:23:42.147Z,5.75
2023-10-26T20:26:12.398Z,5.28
2023-10-26T20:28:41.887Z,4.90
2023-10-26T20:31:12.586Z,5.18
2023-10-26T20:33:43.089Z,5.13
2023-10-26T20:36:13.122Z,5.78
2023-10-26T20:38:42.433Z,6.25
2023-10-26T20:41:10.908Z,5.25
2023-10-26T20:43:39.821Z,5.38
2023-10-26T20:46:09.114Z,5.25
2023-10-26T20:48:42.715Z,5.47
2023-10-26T20:51:12.425Z,5.70
2023-10-26T20:53:41.240Z,5.35
2023-10-26T20:56:10.359Z,6.32
2023-10-26T20:58:38.757Z,6.07
2023-10-26T21:01:11.388Z,6.32
2023-10-26T21:03:41.918Z,5.63
2023-10-26T21:06:13.573Z,5.78
2023-10-26T21:08:43.994Z,5.63
2023-10-26T21:11:16.251Z,5.88
2023-10-26T21:13:44.451Z,5.18
2023-10-26T21:16:12.963Z,6.15
2023-10-26T21:18:42.984Z,5.68
2023-10-26T21:21:11.881Z,5.32
2023-10-26T21:23:40.260Z,5.63
2023-10-26T21:26:09.294Z,8.32
2023-10-26T21:28:39.956Z,7.43
2023-10-26T21:31:08.343Z,6.68
2023-10-26T21:33:36.886Z,7.40
2023-10-26T21:36:12.326Z,7.13
2023-10-26T21:38:40.683Z,7.03
2023-10-26T21:41:09.498Z,6.90
2023-10-26T21:43:37.823Z,6.80
2023-10-26T21:46:07.512Z,6.00
2023-10-26T21:48:36.300Z,6.28
2023-10-26T21:51:09.810Z,7.18
2023-10-26T21:53:39.697Z,5.95
2023-10-26T21:56:08.642Z,5.75
2023-10-26T21:58:36.925Z,5.72
2023-10-26T22:01:08.247Z,5.72
2023-10-26T22:03:36.676Z,5.25
2023-10-26T22:06:05.056Z,5.93
2023-10-26T22:08:34.564Z,6.00
2023-10-26T22:11:02.885Z,6.40
2023-10-26T22:13:31.461Z,5.00
2023-10-26T22:15:59.978Z,5.50
2023-10-26T22:18:36.069Z,5.55
2023-10-26T22:21:04.393Z,5.43
2023-10-26T22:23:34.147Z,6.07
2023-10-26T22:26:02.765Z,5.57
2023-10-26T22:28:31.782Z,6.10
2023-10-26T22:31:01.704Z,6.53
2023-10-26T22:33:36.252Z,6.25
2023-10-26T22:36:05.124Z,6.53
2023-10-26T22:38:34.647Z,5.60
2023-10-26T22:41:04.754Z,6.32
2023-10-26T22:43:33.018Z,6.25
2023-10-26T22:46:01.319Z,6.55
2023-10-26T22:48:29.794Z,7.75
2023-10-26T22:50:59.498Z,7.35
2023-10-26T22:53:27.984Z,9.10
2023-10-26T22:55:57.618Z,8.18
2023-10-26T22:58:26.188Z,7.68
2023-10-26T23:00:54.582Z,6.40
2023-10-26T23:03:23.375Z,6.82
2023-10-26T23:05:59.089Z,6.55
2023-10-26T23:08:28.220Z,6.97
2023-10-26T23:10:57.661Z,6.55
2023-10-26T23:13:26.011Z,5.90
2023-10-26T23:15:54.471Z,6.15
2023-10-26T23:18:22.885Z,6.30
2023-10-26T23:20:51.292Z,5.93
2023-10-26T23:23:19.608Z,6.88
2023-10-26T23:25:48.027Z,10.27
2023-10-26T23:28:17.863Z,9.00
2023-10-26T23:30:46.347Z,7.13
2023-10-26T23:33:15.079Z,7.85
2023-10-26T23:35:43.345Z,6.60
2023-10-26T23:38:11.332Z,7.22
2023-10-26T23:40:39.651Z,6.03
2023-10-26T23:43:07.744Z,5.15
2023-10-26T23:45:37.165Z,5.28
2023-10-26T23:48:05.903Z,5.85
2023-10-26T23:50:34.308Z,5.97
2023-10-26T23:53:02.576Z,6.05
2023-10-26T23:55:30.943Z,5.05
2023-10-26T23:57:59.027Z,5.13
